sensor_id;sensor_type;location;lat;lon;timestamp;pressure;altitude;pressure_sealevel;temperature;humidity
78313;BME280;67568;47.438;21.408;2023-02-11T00:01:09;102646.28;;;-3.32;69.26
78313;BME280;67568;47.438;21.408;2023-02-11T00:03:36;102646.31;;;-3.42;69.89
78313;BME280;67568;47.438;21.408;2023-02-11T00:06:06;102643.06;;;-3.46;69.95
78313;BME280;67568;47.438;21.408;2023-02-11T00:08:33;102647.16;;;-3.42;69.63
78313;BME280;67568;47.438;21.408;2023-02-11T00:11:00;102650.59;;;-3.40;69.34
78313;BME280;67568;47.438;21.408;2023-02-11T00:13:26;102644.84;;;-3.36;69.35
78313;BME280;67568;47.438;21.408;2023-02-11T00:15:54;102646.28;;;-3.32;69.57
78313;BME280;67568;47.438;21.408;2023-02-11T00:18:21;102641.38;;;-3.29;69.75
78313;BME280;67568;47.438;21.408;2023-02-11T00:20:48;102654.19;;;-3.21;69.19
78313;BME280;67568;47.438;21.408;2023-02-11T00:23:14;102645.88;;;-3.20;69.26
78313;BME280;67568;47.438;21.408;2023-02-11T00:25:43;102639.38;;;-3.27;68.48
78313;BME280;67568;47.438;21.408;2023-02-11T00:28:10;102642.41;;;-3.30;69.29
78313;BME280;67568;47.438;21.408;2023-02-11T00:30:37;102647.50;;;-3.27;69.12
78313;BME280;67568;47.438;21.408;2023-02-11T00:33:04;102647.13;;;-3.32;69.45
78313;BME280;67568;47.438;21.408;2023-02-11T00:35:36;102643.16;;;-3.37;69.76
78313;BME280;67568;47.438;21.408;2023-02-11T00:38:02;102637.56;;;-3.36;69.99
78313;BME280;67568;47.438;21.408;2023-02-11T00:40:32;102640.53;;;-3.29;69.40
78313;BME280;67568;47.438;21.408;2023-02-11T00:42:58;102643.91;;;-3.45;68.85
78313;BME280;67568;47.438;21.408;2023-02-11T00:45:25;102633.69;;;-3.51;69.87
78313;BME280;67568;47.438;21.408;2023-02-11T00:47:53;102622.16;;;-3.53;70.12
78313;BME280;67568;47.438;21.408;2023-02-11T00:50:20;102628.50;;;-3.63;69.86
78313;BME280;67568;47.438;21.408;2023-02-11T00:52:46;102614.94;;;-3.63;69.85
78313;BME280;67568;47.438;21.408;2023-02-11T00:55:13;102618.81;;;-3.65;69.65
78313;BME280;67568;47.438;21.408;2023-02-11T00:57:40;102623.47;;;-3.57;69.69
78313;BME280;67568;47.438;21.408;2023-02-11T01:00:08;102621.47;;;-3.55;69.80
78313;BME280;67568;47.438;21.408;2023-02-11T01:02:35;102614.94;;;-3.63;69.55
78313;BME280;67568;47.438;21.408;2023-02-11T01:05:02;102618.28;;;-3.69;70.14
78313;BME280;67568;47.438;21.408;2023-02-11T01:07:29;102606.59;;;-3.69;69.75
78313;BME280;67568;47.438;21.408;2023-02-11T01:09:56;102610.44;;;-3.72;70.42
78313;BME280;67568;47.438;21.408;2023-02-11T01:12:23;102611.22;;;-3.62;69.52
78313;BME280;67568;47.438;21.408;2023-02-11T01:14:49;102612.34;;;-3.54;68.85
78313;BME280;67568;47.438;21.408;2023-02-11T01:17:16;102606.91;;;-3.54;69.08
78313;BME280;67568;47.438;21.408;2023-02-11T01:19:43;102607.97;;;-3.65;68.93
78313;BME280;67568;47.438;21.408;2023-02-11T01:22:09;102600.63;;;-3.73;69.45
78313;BME280;67568;47.438;21.408;2023-02-11T01:24:36;102600.13;;;-3.86;71.43
78313;BME280;67568;47.438;21.408;2023-02-11T01:27:03;102588.19;;;-3.93;71.23
78313;BME280;67568;47.438;21.408;2023-02-11T01:29:29;102603.03;;;-3.97;71.68
78313;BME280;67568;47.438;21.408;2023-02-11T01:31:56;102594.47;;;-3.93;71.77
78313;BME280;67568;47.438;21.408;2023-02-11T01:34:23;102590.59;;;-3.90;71.46
78313;BME280;67568;47.438;21.408;2023-02-11T01:36:49;102594.00;;;-3.88;71.37
78313;BME280;67568;47.438;21.408;2023-02-11T01:39:16;102595.31;;;-3.92;71.27
78313;BME280;67568;47.438;21.408;2023-02-11T01:41:43;102587.34;;;-3.94;71.40
78313;BME280;67568;47.438;21.408;2023-02-11T01:44:31;102585.34;;;-3.92;70.75
78313;BME280;67568;47.438;21.408;2023-02-11T01:46:59;102577.66;;;-3.96;72.12
78313;BME280;67568;47.438;21.408;2023-02-11T01:49:35;102573.38;;;-3.89;71.34
78313;BME280;67568;47.438;21.408;2023-02-11T01:52:26;102577.97;;;-3.99;72.22
78313;BME280;67568;47.438;21.408;2023-02-11T01:55:19;102577.44;;;-4.03;71.98
78313;BME280;67568;47.438;21.408;2023-02-11T01:57:47;102581.69;;;-4.00;71.38
78313;BME280;67568;47.438;21.408;2023-02-11T02:00:21;102577.25;;;-4.01;71.27
78313;BME280;67568;47.438;21.408;2023-02-11T02:05:42;102567.09;;;-3.90;71.21
78313;BME280;67568;47.438;21.408;2023-02-11T02:10:43;102557.03;;;-3.97;70.97
78313;BME280;67568;47.438;21.408;2023-02-11T02:13:11;102550.91;;;-3.99;71.58
78313;BME280;67568;47.438;21.408;2023-02-11T02:15:40;102551.19;;;-4.02;72.38
78313;BME280;67568;47.438;21.408;2023-02-11T02:33:34;102535.38;;;-4.25;73.93
78313;BME280;67568;47.438;21.408;2023-02-11T02:35:55;102535.97;;;-4.31;74.35
78313;BME280;67568;47.438;21.408;2023-02-11T02:41:13;102552.44;;;-4.24;73.65
78313;BME280;67568;47.438;21.408;2023-02-11T02:43:44;102542.94;;;-4.28;74.33
78313;BME280;67568;47.438;21.408;2023-02-11T02:46:25;102543.75;;;-4.18;73.70
78313;BME280;67568;47.438;21.408;2023-02-11T02:48:53;102548.91;;;-4.25;74.06
78313;BME280;67568;47.438;21.408;2023-02-11T02:54:36;102547.34;;;-4.27;73.35
78313;BME280;67568;47.438;21.408;2023-02-11T03:02:22;102540.00;;;-4.35;73.66
78313;BME280;67568;47.438;21.408;2023-02-11T03:05:16;102530.88;;;-4.34;74.18
78313;BME280;67568;47.438;21.408;2023-02-11T03:08:09;102518.72;;;-4.30;74.28
78313;BME280;67568;47.438;21.408;2023-02-11T03:10:41;102518.47;;;-4.37;73.52
78313;BME280;67568;47.438;21.408;2023-02-11T03:13:09;102522.19;;;-4.38;73.99
78313;BME280;67568;47.438;21.408;2023-02-11T03:15:48;102516.31;;;-4.33;74.57
78313;BME280;67568;47.438;21.408;2023-02-11T03:18:19;102506.72;;;-4.45;73.95
78313;BME280;67568;47.438;21.408;2023-02-11T03:20:49;102515.38;;;-4.42;74.54
78313;BME280;67568;47.438;21.408;2023-02-11T03:23:36;102506.94;;;-4.39;74.46
78313;BME280;67568;47.438;21.408;2023-02-11T03:31:35;102516.22;;;-4.41;73.81
78313;BME280;67568;47.438;21.408;2023-02-11T03:34:32;102515.78;;;-4.37;74.17
78313;BME280;67568;47.438;21.408;2023-02-11T03:37:10;102515.78;;;-4.37;73.78
78313;BME280;67568;47.438;21.408;2023-02-11T03:39:43;102511.50;;;-4.39;74.54
78313;BME280;67568;47.438;21.408;2023-02-11T03:42:12;102508.91;;;-4.31;74.34
78313;BME280;67568;47.438;21.408;2023-02-11T03:44:45;102510.81;;;-4.14;73.37
78313;BME280;67568;47.438;21.408;2023-02-11T03:47:16;102512.97;;;-4.17;73.17
78313;BME280;67568;47.438;21.408;2023-02-11T03:49:46;102504.63;;;-4.24;73.25
78313;BME280;67568;47.438;21.408;2023-02-11T03:52:17;102512.75;;;-4.24;72.65
78313;BME280;67568;47.438;21.408;2023-02-11T03:54:48;102497.88;;;-4.20;72.51
78313;BME280;67568;47.438;21.408;2023-02-11T03:57:16;102503.16;;;-4.18;72.97
78313;BME280;67568;47.438;21.408;2023-02-11T03:59:54;102501.97;;;-4.16;72.01
78313;BME280;67568;47.438;21.408;2023-02-11T04:02:28;102495.25;;;-4.30;73.00
78313;BME280;67568;47.438;21.408;2023-02-11T04:04:56;102485.16;;;-4.37;73.39
78313;BME280;67568;47.438;21.408;2023-02-11T04:07:23;102486.47;;;-4.41;73.43
78313;BME280;67568;47.438;21.408;2023-02-11T04:09:50;102479.66;;;-4.45;73.33
78313;BME280;67568;47.438;21.408;2023-02-11T04:12:17;102485.38;;;-4.48;73.71
78313;BME280;67568;47.438;21.408;2023-02-11T04:14:43;102490.78;;;-4.48;72.90
78313;BME280;67568;47.438;21.408;2023-02-11T04:17:10;102484.13;;;-4.54;72.87
78313;BME280;67568;47.438;21.408;2023-02-11T04:19:37;102468.63;;;-4.62;73.51
78313;BME280;67568;47.438;21.408;2023-02-11T04:22:04;102466.38;;;-4.66;74.06
78313;BME280;67568;47.438;21.408;2023-02-11T04:24:31;102448.75;;;-4.70;74.25
78313;BME280;67568;47.438;21.408;2023-02-11T04:26:58;102456.16;;;-4.72;73.69
78313;BME280;67568;47.438;21.408;2023-02-11T04:29:25;102443.94;;;-4.77;73.84
78313;BME280;67568;47.438;21.408;2023-02-11T04:31:51;102447.97;;;-4.81;74.54
78313;BME280;67568;47.438;21.408;2023-02-11T04:34:18;102438.66;;;-4.78;74.32
78313;BME280;67568;47.438;21.408;2023-02-11T04:36:45;102436.25;;;-4.81;73.91
78313;BME280;67568;47.438;21.408;2023-02-11T04:39:12;102439.91;;;-4.72;73.94
78313;BME280;67568;47.438;21.408;2023-02-11T04:41:38;102434.97;;;-4.77;74.35
78313;BME280;67568;47.438;21.408;2023-02-11T04:44:05;102438.97;;;-4.81;74.64
78313;BME280;67568;47.438;21.408;2023-02-11T04:46:31;102440.88;;;-4.91;74.63
78313;BME280;67568;47.438;21.408;2023-02-11T04:48:58;102422.66;;;-4.89;73.96
78313;BME280;67568;47.438;21.408;2023-02-11T04:51:25;102418.72;;;-4.95;74.99
78313;BME280;67568;47.438;21.408;2023-02-11T04:53:51;102423.81;;;-4.92;74.05
78313;BME280;67568;47.438;21.408;2023-02-11T04:56:18;102420.22;;;-4.92;74.51
78313;BME280;67568;47.438;21.408;2023-02-11T04:58:45;102413.84;;;-4.91;74.64
78313;BME280;67568;47.438;21.408;2023-02-11T05:01:13;102413.69;;;-4.90;74.53
78313;BME280;67568;47.438;21.408;2023-02-11T05:03:41;102406.38;;;-4.80;74.16
78313;BME280;67568;47.438;21.408;2023-02-11T05:06:08;102417.44;;;-4.73;72.90
78313;BME280;67568;47.438;21.408;2023-02-11T05:08:38;102412.34;;;-4.76;73.57
78313;BME280;67568;47.438;21.408;2023-02-11T05:11:06;102407.94;;;-4.77;73.43
78313;BME280;67568;47.438;21.408;2023-02-11T05:13:40;102421.28;;;-4.76;73.13
78313;BME280;67568;47.438;21.408;2023-02-11T05:16:07;102409.84;;;-4.87;73.31
78313;BME280;67568;47.438;21.408;2023-02-11T05:18:37;102413.25;;;-4.85;73.41
78313;BME280;67568;47.438;21.408;2023-02-11T05:21:14;102414.56;;;-4.89;74.04
78313;BME280;67568;47.438;21.408;2023-02-11T05:23:44;102417.53;;;-4.92;73.93
78313;BME280;67568;47.438;21.408;2023-02-11T05:26:11;102429.16;;;-4.82;73.17
78313;BME280;67568;47.438;21.408;2023-02-11T05:28:43;102423.47;;;-4.79;74.03
78313;BME280;67568;47.438;21.408;2023-02-11T05:31:11;102436.78;;;-4.68;73.29
78313;BME280;67568;47.438;21.408;2023-02-11T05:33:38;102444.47;;;-4.73;73.54
78313;BME280;67568;47.438;21.408;2023-02-11T05:36:18;102448.72;;;-4.61;72.83
78313;BME280;67568;47.438;21.408;2023-02-11T05:38:45;102457.38;;;-4.57;72.37
78313;BME280;67568;47.438;21.408;2023-02-11T05:41:12;102460.31;;;-4.50;71.81
78313;BME280;67568;47.438;21.408;2023-02-11T05:43:38;102471.63;;;-4.65;71.79
78313;BME280;67568;47.438;21.408;2023-02-11T05:46:05;102460.91;;;-4.57;72.47
78313;BME280;67568;47.438;21.408;2023-02-11T05:48:32;102464.34;;;-4.55;71.60
78313;BME280;67568;47.438;21.408;2023-02-11T05:50:59;102466.84;;;-4.43;72.03
78313;BME280;67568;47.438;21.408;2023-02-11T05:53:25;102456.56;;;-4.40;70.77
78313;BME280;67568;47.438;21.408;2023-02-11T05:55:52;102456.91;;;-4.53;72.51
78313;BME280;67568;47.438;21.408;2023-02-11T05:58:19;102458.13;;;-4.65;72.07
78313;BME280;67568;47.438;21.408;2023-02-11T06:00:46;102465.13;;;-4.72;72.95
78313;BME280;67568;47.438;21.408;2023-02-11T06:03:12;102472.66;;;-4.66;73.00
78313;BME280;67568;47.438;21.408;2023-02-11T06:05:39;102464.94;;;-4.61;72.44
78313;BME280;67568;47.438;21.408;2023-02-11T06:08:07;102463.31;;;-4.54;71.73
78313;BME280;67568;47.438;21.408;2023-02-11T06:10:34;102458.47;;;-4.50;72.40
78313;BME280;67568;47.438;21.408;2023-02-11T06:13:00;102464.81;;;-4.41;71.68
78313;BME280;67568;47.438;21.408;2023-02-11T06:15:27;102449.16;;;-4.38;72.07
78313;BME280;67568;47.438;21.408;2023-02-11T06:17:54;102457.63;;;-4.33;71.76
78313;BME280;67568;47.438;21.408;2023-02-11T06:20:24;102446.78;;;-4.23;71.91
78313;BME280;67568;47.438;21.408;2023-02-11T06:22:50;102449.56;;;-4.15;71.28
78313;BME280;67568;47.438;21.408;2023-02-11T06:25:17;102445.47;;;-4.01;71.16
78313;BME280;67568;47.438;21.408;2023-02-11T06:27:43;102452.34;;;-3.89;70.43
78313;BME280;67568;47.438;21.408;2023-02-11T06:30:12;102452.66;;;-3.74;70.42
78313;BME280;67568;47.438;21.408;2023-02-11T06:32:39;102445.97;;;-3.62;69.66
78313;BME280;67568;47.438;21.408;2023-02-11T06:35:11;102446.03;;;-3.53;69.73
78313;BME280;67568;47.438;21.408;2023-02-11T06:37:39;102444.34;;;-3.54;69.19
78313;BME280;67568;47.438;21.408;2023-02-11T06:40:06;102453.66;;;-3.31;69.73
78313;BME280;67568;47.438;21.408;2023-02-11T06:42:35;102450.69;;;-3.20;68.50
78313;BME280;67568;47.438;21.408;2023-02-11T06:45:02;102436.81;;;-3.17;68.72
78313;BME280;67568;47.438;21.408;2023-02-11T06:47:31;102436.34;;;-3.12;68.39
78313;BME280;67568;47.438;21.408;2023-02-11T06:49:59;102435.19;;;-3.09;68.48
78313;BME280;67568;47.438;21.408;2023-02-11T06:52:25;102421.94;;;-3.12;67.48
78313;BME280;67568;47.438;21.408;2023-02-11T06:54:52;102431.53;;;-2.92;68.38
78313;BME280;67568;47.438;21.408;2023-02-11T06:57:19;102418.72;;;-2.74;68.08
78313;BME280;67568;47.438;21.408;2023-02-11T06:59:45;102419.91;;;-2.84;67.13
78313;BME280;67568;47.438;21.408;2023-02-11T07:02:12;102421.72;;;-2.85;67.55
78313;BME280;67568;47.438;21.408;2023-02-11T07:04:38;102414.47;;;-2.84;67.15
78313;BME280;67568;47.438;21.408;2023-02-11T07:07:05;102408.81;;;-2.49;66.95
78313;BME280;67568;47.438;21.408;2023-02-11T07:09:32;102407.94;;;-1.90;66.12
78313;BME280;67568;47.438;21.408;2023-02-11T07:12:01;102394.81;;;-1.46;64.13
78313;BME280;67568;47.438;21.408;2023-02-11T07:14:28;102399.72;;;-1.17;63.40
78313;BME280;67568;47.438;21.408;2023-02-11T07:17:04;102394.81;;;-1.38;63.36
78313;BME280;67568;47.438;21.408;2023-02-11T07:19:31;102377.78;;;-1.31;63.52
78313;BME280;67568;47.438;21.408;2023-02-11T07:22:00;102382.59;;;-1.42;63.19
78313;BME280;67568;47.438;21.408;2023-02-11T07:24:27;102373.47;;;-1.73;64.15
78313;BME280;67568;47.438;21.408;2023-02-11T07:26:53;102369.13;;;-1.27;63.72
78313;BME280;67568;47.438;21.408;2023-02-11T07:29:20;102375.91;;;-0.44;62.09
78313;BME280;67568;47.438;21.408;2023-02-11T07:31:47;102376.56;;;-0.65;61.15
78313;BME280;67568;47.438;21.408;2023-02-11T07:34:13;102384.91;;;-0.75;61.51
78313;BME280;67568;47.438;21.408;2023-02-11T07:36:40;102387.03;;;-0.54;61.22
78313;BME280;67568;47.438;21.408;2023-02-11T07:39:07;102389.25;;;-0.26;61.08
78313;BME280;67568;47.438;21.408;2023-02-11T07:41:33;102390.03;;;0.06;60.66
78313;BME280;67568;47.438;21.408;2023-02-11T07:44:03;102389.84;;;0.30;60.58
78313;BME280;67568;47.438;21.408;2023-02-11T07:46:30;102369.03;;;0.14;60.20
78313;BME280;67568;47.438;21.408;2023-02-11T07:48:57;102366.13;;;-0.30;61.43
78313;BME280;67568;47.438;21.408;2023-02-11T07:51:29;102383.91;;;-0.42;61.45
78313;BME280;67568;47.438;21.408;2023-02-11T07:53:57;102383.34;;;-0.69;62.26
78313;BME280;67568;47.438;21.408;2023-02-11T07:56:24;102375.09;;;-0.84;62.01
78313;BME280;67568;47.438;21.408;2023-02-11T07:58:51;102364.66;;;-0.72;62.70
78313;BME280;67568;47.438;21.408;2023-02-11T08:01:21;102380.16;;;-0.41;62.04
78313;BME280;67568;47.438;21.408;2023-02-11T08:03:48;102381.34;;;-0.44;61.72
78313;BME280;67568;47.438;21.408;2023-02-11T08:06:16;102380.16;;;-0.41;61.59
78313;BME280;67568;47.438;21.408;2023-02-11T08:08:43;102378.59;;;-0.13;60.91
78313;BME280;67568;47.438;21.408;2023-02-11T08:11:13;102382.47;;;0.54;60.58
78313;BME280;67568;47.438;21.408;2023-02-11T08:13:41;102377.38;;;0.51;59.41
78313;BME280;67568;47.438;21.408;2023-02-11T08:16:08;102386.53;;;0.58;58.98
78313;BME280;67568;47.438;21.408;2023-02-11T08:18:35;102385.31;;;0.60;59.53
78313;BME280;67568;47.438;21.408;2023-02-11T08:21:04;102386.31;;;0.44;60.32
78313;BME280;67568;47.438;21.408;2023-02-11T08:23:31;102391.41;;;0.48;60.62
78313;BME280;67568;47.438;21.408;2023-02-11T08:26:06;102391.19;;;0.11;60.38
78313;BME280;67568;47.438;21.408;2023-02-11T08:28:39;102395.25;;;0.15;60.69
78313;BME280;67568;47.438;21.408;2023-02-11T08:31:09;102402.97;;;0.12;61.33
78313;BME280;67568;47.438;21.408;2023-02-11T08:33:36;102397.44;;;0.20;61.15
78313;BME280;67568;47.438;21.408;2023-02-11T08:36:23;102402.34;;;0.02;62.24
78313;BME280;67568;47.438;21.408;2023-02-11T08:38:50;102407.13;;;0.22;61.19
78313;BME280;67568;47.438;21.408;2023-02-11T08:41:17;102407.00;;;0.16;61.88
78313;BME280;67568;47.438;21.408;2023-02-11T08:43:44;102408.16;;;-0.02;62.10
78313;BME280;67568;47.438;21.408;2023-02-11T08:46:13;102390.13;;;0.20;61.50
78313;BME280;67568;47.438;21.408;2023-02-11T08:48:41;102394.81;;;0.79;61.42
78313;BME280;67568;47.438;21.408;2023-02-11T08:51:12;102401.63;;;1.13;59.27
78313;BME280;67568;47.438;21.408;2023-02-11T08:53:39;102394.50;;;1.85;57.46
78313;BME280;67568;47.438;21.408;2023-02-11T08:56:07;102383.53;;;2.70;56.65
78313;BME280;67568;47.438;21.408;2023-02-11T08:58:33;102392.16;;;4.58;51.64
78313;BME280;67568;47.438;21.408;2023-02-11T09:01:00;102388.09;;;3.94;51.32
78313;BME280;67568;47.438;21.408;2023-02-11T09:03:27;102388.16;;;3.05;52.69
78313;BME280;67568;47.438;21.408;2023-02-11T09:05:53;102386.44;;;2.69;55.05
78313;BME280;67568;47.438;21.408;2023-02-11T09:08:20;102386.88;;;2.16;56.38
78313;BME280;67568;47.438;21.408;2023-02-11T09:10:47;102383.69;;;1.76;57.69
78313;BME280;67568;47.438;21.408;2023-02-11T09:13:14;102383.22;;;1.37;59.03
78313;BME280;67568;47.438;21.408;2023-02-11T09:15:44;102391.56;;;1.65;58.00
78313;BME280;67568;47.438;21.408;2023-02-11T09:18:12;102389.34;;;1.39;59.47
78313;BME280;67568;47.438;21.408;2023-02-11T09:20:39;102386.97;;;1.50;59.03
78313;BME280;67568;47.438;21.408;2023-02-11T09:23:05;102380.84;;;1.63;59.71
78313;BME280;67568;47.438;21.408;2023-02-11T09:25:32;102375.59;;;1.47;60.03
78313;BME280;67568;47.438;21.408;2023-02-11T09:27:59;102375.81;;;1.30;61.23
78313;BME280;67568;47.438;21.408;2023-02-11T09:30:26;102367.63;;;1.16;60.65
78313;BME280;67568;47.438;21.408;2023-02-11T09:32:52;102371.22;;;1.31;61.31
78313;BME280;67568;47.438;21.408;2023-02-11T09:35:19;102364.88;;;1.30;60.45
78313;BME280;67568;47.438;21.408;2023-02-11T09:37:46;102356.16;;;1.20;60.95
78313;BME280;67568;47.438;21.408;2023-02-11T09:40:14;102352.94;;;1.31;61.32
78313;BME280;67568;47.438;21.408;2023-02-11T09:42:56;102356.56;;;1.39;60.83
78313;BME280;67568;47.438;21.408;2023-02-11T09:45:30;102349.16;;;1.32;60.33
78313;BME280;67568;47.438;21.408;2023-02-11T09:48:09;102342.56;;;1.27;62.05
78313;BME280;67568;47.438;21.408;2023-02-11T09:50:41;102338.97;;;1.41;60.82
78313;BME280;67568;47.438;21.408;2023-02-11T09:53:39;102338.34;;;1.24;61.44
78313;BME280;67568;47.438;21.408;2023-02-11T09:56:12;102343.38;;;1.06;62.16
78313;BME280;67568;47.438;21.408;2023-02-11T09:58:42;102343.63;;;1.11;62.98
78313;BME280;67568;47.438;21.408;2023-02-11T10:06:44;102323.44;;;1.85;60.45
78313;BME280;67568;47.438;21.408;2023-02-11T10:09:27;102314.00;;;1.87;59.87
78313;BME280;67568;47.438;21.408;2023-02-11T10:12:36;102308.09;;;2.05;59.53
78313;BME280;67568;47.438;21.408;2023-02-11T10:15:19;102316.25;;;2.55;58.66
78313;BME280;67568;47.438;21.408;2023-02-11T10:21:08;102306.72;;;3.27;55.85
78313;BME280;67568;47.438;21.408;2023-02-11T10:23:40;102312.13;;;3.88;55.35
78313;BME280;67568;47.438;21.408;2023-02-11T10:26:12;102293.06;;;5.31;52.78
78313;BME280;67568;47.438;21.408;2023-02-11T10:28:43;102297.13;;;5.22;50.78
78313;BME280;67568;47.438;21.408;2023-02-11T10:31:37;102295.00;;;4.66;52.13
78313;BME280;67568;47.438;21.408;2023-02-11T10:34:08;102300.09;;;4.42;52.30
78313;BME280;67568;47.438;21.408;2023-02-11T10:36:41;102296.06;;;4.51;52.18
78313;BME280;67568;47.438;21.408;2023-02-11T10:39:19;102284.72;;;5.13;51.04
78313;BME280;67568;47.438;21.408;2023-02-11T10:41:52;102278.13;;;5.59;48.82
78313;BME280;67568;47.438;21.408;2023-02-11T10:44:24;102278.94;;;5.91;48.07
78313;BME280;67568;47.438;21.408;2023-02-11T10:46:52;102276.47;;;5.13;49.85
78313;BME280;67568;47.438;21.408;2023-02-11T10:49:40;102272.69;;;4.16;51.62
78313;BME280;67568;47.438;21.408;2023-02-11T10:52:17;102274.38;;;3.90;52.70
78313;BME280;67568;47.438;21.408;2023-02-11T10:57:34;102255.81;;;3.79;53.09
78313;BME280;67568;47.438;21.408;2023-02-11T11:00:19;102257.44;;;5.50;50.02
78313;BME280;67568;47.438;21.408;2023-02-11T11:02:54;102252.72;;;6.57;47.25
78313;BME280;67568;47.438;21.408;2023-02-11T11:05:33;102254.09;;;6.04;46.77
78313;BME280;67568;47.438;21.408;2023-02-11T11:08:04;102247.03;;;6.15;47.75
78313;BME280;67568;47.438;21.408;2023-02-11T11:10:39;102234.28;;;5.64;47.33
78313;BME280;67568;47.438;21.408;2023-02-11T11:18:39;102217.38;;;5.35;49.13
78313;BME280;67568;47.438;21.408;2023-02-11T11:21:34;102221.09;;;5.09;49.12
78313;BME280;67568;47.438;21.408;2023-02-11T11:24:03;102221.25;;;4.69;50.95
78313;BME280;67568;47.438;21.408;2023-02-11T11:26:41;102226.81;;;4.56;51.35
78313;BME280;67568;47.438;21.408;2023-02-11T11:29:14;102223.16;;;4.69;50.54
78313;BME280;67568;47.438;21.408;2023-02-11T11:31:54;102206.59;;;4.95;49.34
78313;BME280;67568;47.438;21.408;2023-02-11T11:34:51;102202.19;;;5.26;48.53
78313;BME280;67568;47.438;21.408;2023-02-11T11:45:28;102178.63;;;6.56;44.66
78313;BME280;67568;47.438;21.408;2023-02-11T11:47:58;102169.38;;;6.50;45.45
78313;BME280;67568;47.438;21.408;2023-02-11T11:50:34;102161.63;;;6.22;46.72
78313;BME280;67568;47.438;21.408;2023-02-11T11:56:12;102150.06;;;5.45;48.28
78313;BME280;67568;47.438;21.408;2023-02-11T11:58:40;102145.28;;;5.02;48.89
78313;BME280;67568;47.438;21.408;2023-02-11T12:01:28;102139.13;;;4.68;50.29
78313;BME280;67568;47.438;21.408;2023-02-11T12:04:21;102145.69;;;4.60;50.79
78313;BME280;67568;47.438;21.408;2023-02-11T12:07:06;102134.44;;;4.30;50.53
78313;BME280;67568;47.438;21.408;2023-02-11T12:09:44;102142.16;;;4.53;51.09
78313;BME280;67568;47.438;21.408;2023-02-11T12:12:39;102128.88;;;4.43;51.52
78313;BME280;67568;47.438;21.408;2023-02-11T12:18:32;102135.00;;;4.45;51.95
78313;BME280;67568;47.438;21.408;2023-02-11T12:27:05;102110.16;;;4.34;52.45
78313;BME280;67568;47.438;21.408;2023-02-11T12:40:40;102091.22;;;4.19;53.47
78313;BME280;67568;47.438;21.408;2023-02-11T12:43:45;102089.91;;;4.28;52.60
78313;BME280;67568;47.438;21.408;2023-02-11T12:49:23;102079.16;;;4.65;51.75
78313;BME280;67568;47.438;21.408;2023-02-11T12:55:01;102072.88;;;4.58;51.52
78313;BME280;67568;47.438;21.408;2023-02-11T12:57:29;102076.69;;;4.57;52.44
78313;BME280;67568;47.438;21.408;2023-02-11T13:00:16;102059.00;;;4.46;52.22
78313;BME280;67568;47.438;21.408;2023-02-11T13:03:04;102057.28;;;4.51;51.94
78313;BME280;67568;47.438;21.408;2023-02-11T13:05:43;102043.81;;;4.43;51.39
78313;BME280;67568;47.438;21.408;2023-02-11T13:08:22;102042.06;;;4.56;52.89
78313;BME280;67568;47.438;21.408;2023-02-11T13:10:58;102035.13;;;4.53;52.83
78313;BME280;67568;47.438;21.408;2023-02-11T13:13:35;102021.16;;;4.55;51.77
78313;BME280;67568;47.438;21.408;2023-02-11T13:16:06;102005.81;;;4.40;52.06
78313;BME280;67568;47.438;21.408;2023-02-11T13:18:59;102006.28;;;4.37;51.96
78313;BME280;67568;47.438;21.408;2023-02-11T13:27:37;101989.66;;;4.25;51.27
78313;BME280;67568;47.438;21.408;2023-02-11T13:30:28;101985.28;;;4.18;51.81
78313;BME280;67568;47.438;21.408;2023-02-11T13:37:58;101997.47;;;4.28;51.89
78313;BME280;67568;47.438;21.408;2023-02-11T13:40:37;101985.22;;;4.31;52.73
78313;BME280;67568;47.438;21.408;2023-02-11T13:43:23;101993.19;;;4.39;51.70
78313;BME280;67568;47.438;21.408;2023-02-11T13:45:51;101987.88;;;4.44;52.69
78313;BME280;67568;47.438;21.408;2023-02-11T13:48:32;101994.41;;;4.43;52.24
78313;BME280;67568;47.438;21.408;2023-02-11T13:51:12;101995.66;;;4.47;51.58
78313;BME280;67568;47.438;21.408;2023-02-11T13:53:46;102004.50;;;4.49;51.59
78313;BME280;67568;47.438;21.408;2023-02-11T13:56:36;102012.31;;;4.53;51.75
78313;BME280;67568;47.438;21.408;2023-02-11T13:59:42;102009.97;;;4.56;52.09
78313;BME280;67568;47.438;21.408;2023-02-11T14:04:28;101992.09;;;4.47;50.56
78313;BME280;67568;47.438;21.408;2023-02-11T14:07:32;101977.94;;;4.43;51.62
78313;BME280;67568;47.438;21.408;2023-02-11T14:09:59;101972.44;;;4.43;50.71
78313;BME280;67568;47.438;21.408;2023-02-11T14:12:32;101959.81;;;4.42;51.58
78313;BME280;67568;47.438;21.408;2023-02-11T14:15:14;101969.97;;;4.35;52.00
78313;BME280;67568;47.438;21.408;2023-02-11T14:17:43;101963.66;;;4.35;51.43
78313;BME280;67568;47.438;21.408;2023-02-11T14:20:36;101956.25;;;4.35;51.89
78313;BME280;67568;47.438;21.408;2023-02-11T14:23:15;101954.38;;;4.36;51.47
78313;BME280;67568;47.438;21.408;2023-02-11T14:25:58;101959.19;;;4.40;52.29
78313;BME280;67568;47.438;21.408;2023-02-11T14:28:36;101950.94;;;4.40;51.50
78313;BME280;67568;47.438;21.408;2023-02-11T14:31:16;101940.41;;;4.37;51.64
78313;BME280;67568;47.438;21.408;2023-02-11T14:34:06;101950.16;;;4.33;51.76
78313;BME280;67568;47.438;21.408;2023-02-11T14:41:55;101950.19;;;4.26;52.04
78313;BME280;67568;47.438;21.408;2023-02-11T14:44:25;101955.06;;;4.24;52.51
78313;BME280;67568;47.438;21.408;2023-02-11T14:46:53;101958.47;;;4.20;52.77
78313;BME280;67568;47.438;21.408;2023-02-11T14:49:27;101946.88;;;4.18;52.19
78313;BME280;67568;47.438;21.408;2023-02-11T14:52:43;101935.09;;;4.11;52.77
78313;BME280;67568;47.438;21.408;2023-02-11T14:54:47;101931.09;;;4.06;53.20
78313;BME280;67568;47.438;21.408;2023-02-11T14:57:19;101938.88;;;4.10;53.06
78313;BME280;67568;47.438;21.408;2023-02-11T14:59:59;101938.72;;;4.04;53.24